sensor_id;sensor_type;location;lat;lon;timestamp;pressure;altitude;pressure_sealevel;temperature;humidity
46111;BME280;31849;55.992;37.252;2022-12-26T00:01:00;100259.47;;;-1.19;54.08
46111;BME280;31849;55.992;37.252;2022-12-26T00:06:10;100263.53;;;-1.22;54.35
46111;BME280;31849;55.992;37.252;2022-12-26T00:11:15;100257.31;;;-1.28;54.10
46111;BME280;31849;55.992;37.252;2022-12-26T00:16:20;100270.75;;;-1.30;54.25
46111;BME280;31849;55.992;37.252;2022-12-26T00:21:25;100273.75;;;-1.22;54.20
46111;BME280;31849;55.992;37.252;2022-12-26T00:26:31;100279.47;;;-1.27;54.10
46111;BME280;31849;55.992;37.252;2022-12-26T00:31:36;100278.41;;;-1.30;54.45
46111;BME280;31849;55.992;37.252;2022-12-26T00:36:41;100286.16;;;-1.14;54.10
46111;BME280;31849;55.992;37.252;2022-12-26T00:41:45;100292.66;;;-1.19;54.06
46111;BME280;31849;55.992;37.252;2022-12-26T00:46:48;100290.03;;;-1.20;53.98
46111;BME280;31849;55.992;37.252;2022-12-26T00:51:53;100290.19;;;-1.17;53.88
46111;BME280;31849;55.992;37.252;2022-12-26T00:56:56;100304.56;;;-1.19;53.32
46111;BME280;31849;55.992;37.252;2022-12-26T01:02:00;100304.72;;;-1.31;53.96
46111;BME280;31849;55.992;37.252;2022-12-26T01:07:25;100291.34;;;-1.27;53.93
46111;BME280;31849;55.992;37.252;2022-12-26T01:12:28;100297.16;;;-1.15;53.76
46111;BME280;31849;55.992;37.252;2022-12-26T01:17:32;100296.97;;;-1.33;54.12
46111;BME280;31849;55.992;37.252;2022-12-26T01:22:37;100296.53;;;-1.40;53.59
46111;BME280;31849;55.992;37.252;2022-12-26T01:27:40;100292.41;;;-1.24;53.69
46111;BME280;31849;55.992;37.252;2022-12-26T01:32:44;100297.84;;;-1.32;53.35
46111;BME280;31849;55.992;37.252;2022-12-26T01:37:49;100287.28;;;-1.24;53.54
46111;BME280;31849;55.992;37.252;2022-12-26T01:42:52;100285.97;;;-1.32;53.17
46111;BME280;31849;55.992;37.252;2022-12-26T01:48:00;100289.31;;;-1.18;53.11
46111;BME280;31849;55.992;37.252;2022-12-26T01:53:09;100290.19;;;-1.17;52.87
46111;BME280;31849;55.992;37.252;2022-12-26T01:58:17;100294.50;;;-1.16;53.13
46111;BME280;31849;55.992;37.252;2022-12-26T02:03:23;100296.53;;;-1.26;52.92
46111;BME280;31849;55.992;37.252;2022-12-26T02:08:46;100301.22;;;-1.18;52.95
46111;BME280;31849;55.992;37.252;2022-12-26T02:13:49;100288.88;;;-1.26;52.83
46111;BME280;31849;55.992;37.252;2022-12-26T02:18:53;100295.84;;;-1.23;52.70
46111;BME280;31849;55.992;37.252;2022-12-26T02:24:14;100286.69;;;-1.19;52.63
46111;BME280;31849;55.992;37.252;2022-12-26T02:35:06;100292.28;;;-1.40;52.66
46111;BME280;31849;55.992;37.252;2022-12-26T02:40:27;100287.00;;;-1.43;52.41
46111;BME280;31849;55.992;37.252;2022-12-26T02:45:37;100300.94;;;-1.38;52.79
46111;BME280;31849;55.992;37.252;2022-12-26T02:51:08;100302.75;;;-1.35;52.42
46111;BME280;31849;55.992;37.252;2022-12-26T02:56:35;100312.97;;;-1.35;52.55
46111;BME280;31849;55.992;37.252;2022-12-26T03:01:59;100300.53;;;-1.44;52.97
46111;BME280;31849;55.992;37.252;2022-12-26T03:07:25;100300.75;;;-1.41;52.96
46111;BME280;31849;55.992;37.252;2022-12-26T03:12:53;100304.34;;;-1.37;52.70
46111;BME280;31849;55.992;37.252;2022-12-26T03:18:12;100312.25;;;-1.48;52.92
46111;BME280;31849;55.992;37.252;2022-12-26T03:23:19;100308.97;;;-1.60;52.45
46111;BME280;31849;55.992;37.252;2022-12-26T03:28:24;100309.25;;;-1.84;53.43
46111;BME280;31849;55.992;37.252;2022-12-26T03:33:30;100301.13;;;-1.78;53.19
46111;BME280;31849;55.992;37.252;2022-12-26T03:39:00;100299.09;;;-1.69;52.95
46111;BME280;31849;55.992;37.252;2022-12-26T03:44:24;100309.91;;;-1.73;53.33
46111;BME280;31849;55.992;37.252;2022-12-26T03:50:02;100307.91;;;-1.64;53.31
46111;BME280;31849;55.992;37.252;2022-12-26T03:55:33;100311.81;;;-1.55;53.13
46111;BME280;31849;55.992;37.252;2022-12-26T04:01:14;100322.84;;;-1.70;53.05
46111;BME280;31849;55.992;37.252;2022-12-26T04:06:44;100329.97;;;-1.64;52.86
46111;BME280;31849;55.992;37.252;2022-12-26T04:12:13;100326.75;;;-1.62;52.93
46111;BME280;31849;55.992;37.252;2022-12-26T04:17:42;100314.94;;;-1.60;53.06
46111;BME280;31849;55.992;37.252;2022-12-26T04:23:08;100321.88;;;-1.72;53.13
46111;BME280;31849;55.992;37.252;2022-12-26T04:28:34;100321.41;;;-1.80;53.29
46111;BME280;31849;55.992;37.252;2022-12-26T04:33:57;100321.88;;;-2.00;53.88
46111;BME280;31849;55.992;37.252;2022-12-26T04:39:22;100291.50;;;-2.10;53.43
46111;BME280;31849;55.992;37.252;2022-12-26T04:44:46;100325.97;;;-1.74;53.31
46111;BME280;31849;55.992;37.252;2022-12-26T04:49:51;100347.84;;;-1.64;53.20
46111;BME280;31849;55.992;37.252;2022-12-26T04:55:12;100349.06;;;-1.57;52.87
46111;BME280;31849;55.992;37.252;2022-12-26T05:00:18;100352.44;;;-1.58;52.66
46111;BME280;31849;55.992;37.252;2022-12-26T05:05:21;100358.13;;;-1.63;52.93
46111;BME280;31849;55.992;37.252;2022-12-26T05:10:54;100354.06;;;-1.59;52.84
46111;BME280;31849;55.992;37.252;2022-12-26T05:15:58;100361.31;;;-1.52;52.71
46111;BME280;31849;55.992;37.252;2022-12-26T05:21:19;100367.00;;;-1.56;52.53
46111;BME280;31849;55.992;37.252;2022-12-26T05:26:40;100360.25;;;-1.55;52.56
46111;BME280;31849;55.992;37.252;2022-12-26T05:32:02;100357.47;;;-1.45;52.67
46111;BME280;31849;55.992;37.252;2022-12-26T05:37:06;100363.13;;;-1.36;52.70
46111;BME280;31849;55.992;37.252;2022-12-26T05:42:09;100365.16;;;-1.30;52.41
46111;BME280;31849;55.992;37.252;2022-12-26T05:47:14;100376.16;;;-1.31;52.71
46111;BME280;31849;55.992;37.252;2022-12-26T05:52:18;100358.16;;;-1.48;52.80
46111;BME280;31849;55.992;37.252;2022-12-26T05:57:21;100384.00;;;-1.13;52.68
46111;BME280;31849;55.992;37.252;2022-12-26T06:02:28;100384.66;;;-1.02;52.54
46111;BME280;31849;55.992;37.252;2022-12-26T06:07:31;100394.59;;;-0.92;52.19
46111;BME280;31849;55.992;37.252;2022-12-26T06:12:35;100387.03;;;-0.91;52.07
46111;BME280;31849;55.992;37.252;2022-12-26T06:17:40;100392.63;;;-0.83;51.95
46111;BME280;31849;55.992;37.252;2022-12-26T06:22:43;100406.50;;;-0.93;52.13
46111;BME280;31849;55.992;37.252;2022-12-26T06:27:47;100408.44;;;-0.89;51.96
46111;BME280;31849;55.992;37.252;2022-12-26T06:32:52;100417.34;;;-0.82;51.72
46111;BME280;31849;55.992;37.252;2022-12-26T06:37:55;100410.41;;;-0.84;51.52
46111;BME280;31849;55.992;37.252;2022-12-26T06:42:59;100420.22;;;-0.91;51.70
46111;BME280;31849;55.992;37.252;2022-12-26T06:48:04;100422.97;;;-1.02;51.56
46111;BME280;31849;55.992;37.252;2022-12-26T06:53:08;100435.88;;;-1.14;51.43
46111;BME280;31849;55.992;37.252;2022-12-26T06:58:11;100438.88;;;-1.35;51.63
46111;BME280;31849;55.992;37.252;2022-12-26T07:03:16;100443.25;;;-1.61;52.01
46111;BME280;31849;55.992;37.252;2022-12-26T07:08:21;100436.72;;;-1.70;52.18
46111;BME280;31849;55.992;37.252;2022-12-26T07:13:25;100435.78;;;-1.57;51.94
46111;BME280;31849;55.992;37.252;2022-12-26T07:18:30;100422.16;;;-1.58;52.21
46111;BME280;31849;55.992;37.252;2022-12-26T07:23:34;100422.63;;;-1.50;51.75
46111;BME280;31849;55.992;37.252;2022-12-26T07:28:41;100423.81;;;-1.45;51.67
46111;BME280;31849;55.992;37.252;2022-12-26T07:33:47;100445.63;;;-1.35;51.74
46111;BME280;31849;55.992;37.252;2022-12-26T07:38:51;100448.09;;;-1.37;51.62
46111;BME280;31849;55.992;37.252;2022-12-26T07:43:55;100441.25;;;-1.38;51.91
46111;BME280;31849;55.992;37.252;2022-12-26T07:49:00;100451.47;;;-1.38;51.48
46111;BME280;31849;55.992;37.252;2022-12-26T07:54:04;100453.31;;;-1.49;51.90
46111;BME280;31849;55.992;37.252;2022-12-26T07:59:13;100452.88;;;-1.28;51.45
46111;BME280;31849;55.992;37.252;2022-12-26T08:04:19;100452.56;;;-1.19;51.21
46111;BME280;31849;55.992;37.252;2022-12-26T08:09:22;100455.28;;;-1.16;50.88
46111;BME280;31849;55.992;37.252;2022-12-26T08:14:26;100435.38;;;-1.22;50.84
46111;BME280;31849;55.992;37.252;2022-12-26T08:19:31;100455.69;;;-0.95;50.49
46111;BME280;31849;55.992;37.252;2022-12-26T08:24:35;100450.13;;;-1.03;50.58
46111;BME280;31849;55.992;37.252;2022-12-26T08:29:38;100453.22;;;-0.94;50.85
46111;BME280;31849;55.992;37.252;2022-12-26T08:34:44;100450.97;;;-0.89;50.28
46111;BME280;31849;55.992;37.252;2022-12-26T08:39:47;100421.19;;;-1.03;50.20
46111;BME280;31849;55.992;37.252;2022-12-26T08:44:51;100439.09;;;-0.74;50.21
46111;BME280;31849;55.992;37.252;2022-12-26T08:49:56;100447.56;;;-0.60;49.74
46111;BME280;31849;55.992;37.252;2022-12-26T08:54:59;100439.97;;;-0.28;49.19
46111;BME280;31849;55.992;37.252;2022-12-26T09:00:05;100448.47;;;-0.29;48.88
46111;BME280;31849;55.992;37.252;2022-12-26T09:05:11;100436.50;;;0.01;48.81
46111;BME280;31849;55.992;37.252;2022-12-26T09:10:14;100436.22;;;0.11;48.49
46111;BME280;31849;55.992;37.252;2022-12-26T09:15:18;100436.16;;;-0.05;48.63
46111;BME280;31849;55.992;37.252;2022-12-26T09:20:22;100441.34;;;0.11;48.51
46111;BME280;31849;55.992;37.252;2022-12-26T09:25:26;100431.84;;;-0.06;48.48
46111;BME280;31849;55.992;37.252;2022-12-26T09:30:30;100428.34;;;-0.08;48.58
46111;BME280;31849;55.992;37.252;2022-12-26T09:35:38;100428.13;;;0.04;48.10
46111;BME280;31849;55.992;37.252;2022-12-26T09:40:50;100406.66;;;0.00;48.34
46111;BME280;31849;55.992;37.252;2022-12-26T09:46:01;100407.94;;;0.08;47.86
46111;BME280;31849;55.992;37.252;2022-12-26T09:51:10;100407.22;;;0.11;48.17
46111;BME280;31849;55.992;37.252;2022-12-26T09:56:15;100397.94;;;0.13;47.78
46111;BME280;31849;55.992;37.252;2022-12-26T10:01:39;100416.13;;;0.03;47.86
46111;BME280;31849;55.992;37.252;2022-12-26T10:06:49;100413.88;;;-0.23;47.93
46111;BME280;31849;55.992;37.252;2022-12-26T10:12:10;100410.09;;;-0.14;48.26
46111;BME280;31849;55.992;37.252;2022-12-26T10:17:22;100410.97;;;-0.14;48.06
46111;BME280;31849;55.992;37.252;2022-12-26T10:22:38;100403.66;;;-0.23;48.05
46111;BME280;31849;55.992;37.252;2022-12-26T10:27:49;100408.38;;;-0.75;49.25
46111;BME280;31849;55.992;37.252;2022-12-26T10:32:56;100407.56;;;-0.89;49.29
46111;BME280;31849;55.992;37.252;2022-12-26T10:38:10;100414.66;;;-1.13;49.84
46111;BME280;31849;55.992;37.252;2022-12-26T10:43:25;100404.66;;;-1.24;49.78
46111;BME280;31849;55.992;37.252;2022-12-26T10:48:30;100408.09;;;-1.38;49.90
46111;BME280;31849;55.992;37.252;2022-12-26T10:53:39;100401.22;;;-1.39;49.84
46111;BME280;31849;55.992;37.252;2022-12-26T10:58:44;100385.53;;;-1.17;49.79
46111;BME280;31849;55.992;37.252;2022-12-26T11:03:53;100391.13;;;-1.22;49.75
46111;BME280;31849;55.992;37.252;2022-12-26T11:08:59;100365.38;;;-1.55;50.25
46111;BME280;31849;55.992;37.252;2022-12-26T11:14:03;100388.13;;;-1.58;50.75
46111;BME280;31849;55.992;37.252;2022-12-26T11:19:25;100387.03;;;-1.62;50.77
46111;BME280;31849;55.992;37.252;2022-12-26T11:24:31;100384.16;;;-1.82;51.08
46111;BME280;31849;55.992;37.252;2022-12-26T11:29:35;100384.06;;;-1.83;50.89
46111;BME280;31849;55.992;37.252;2022-12-26T11:34:40;100381.94;;;-2.04;51.57
46111;BME280;31849;55.992;37.252;2022-12-26T11:39:50;100376.94;;;-2.02;51.41
46111;BME280;31849;55.992;37.252;2022-12-26T11:44:56;100377.66;;;-2.05;51.47
46111;BME280;31849;55.992;37.252;2022-12-26T11:50:06;100374.38;;;-2.02;51.76
46111;BME280;31849;55.992;37.252;2022-12-26T11:55:29;100374.28;;;-2.04;51.45
46111;BME280;31849;55.992;37.252;2022-12-26T12:00:36;100379.00;;;-2.23;52.44
46111;BME280;31849;55.992;37.252;2022-12-26T12:05:44;100382.16;;;-2.27;52.22
46111;BME280;31849;55.992;37.252;2022-12-26T12:10:59;100384.09;;;-2.50;52.73
46111;BME280;31849;55.992;37.252;2022-12-26T12:16:10;100372.84;;;-2.67;53.56
46111;BME280;31849;55.992;37.252;2022-12-26T12:21:23;100385.50;;;-2.42;52.56
46111;BME280;31849;55.992;37.252;2022-12-26T12:26:36;100346.38;;;-2.69;53.08
46111;BME280;31849;55.992;37.252;2022-12-26T12:31:53;100375.41;;;-2.67;54.20
46111;BME280;31849;55.992;37.252;2022-12-26T12:37:14;100375.88;;;-2.19;53.42
46111;BME280;31849;55.992;37.252;2022-12-26T12:42:32;100365.38;;;-1.55;53.09
46111;BME280;31849;55.992;37.252;2022-12-26T12:47:47;100370.09;;;-1.62;52.43
46111;BME280;31849;55.992;37.252;2022-12-26T12:53:02;100369.19;;;-1.34;51.41
46111;BME280;31849;55.992;37.252;2022-12-26T12:58:19;100370.28;;;-1.30;51.70
46111;BME280;31849;55.992;37.252;2022-12-26T13:03:31;100372.19;;;-1.54;51.67
46111;BME280;31849;55.992;37.252;2022-12-26T13:08:38;100368.38;;;-1.76;51.42
46111;BME280;31849;55.992;37.252;2022-12-26T13:13:48;100372.88;;;-1.72;51.72
46111;BME280;31849;55.992;37.252;2022-12-26T13:18:58;100381.03;;;-1.91;51.78
46111;BME280;31849;55.992;37.252;2022-12-26T13:24:05;100385.28;;;-1.91;51.68
46111;BME280;31849;55.992;37.252;2022-12-26T13:29:38;100378.72;;;-2.28;52.64
46111;BME280;31849;55.992;37.252;2022-12-26T13:34:43;100397.53;;;-2.53;53.27
46111;BME280;31849;55.992;37.252;2022-12-26T13:39:51;100379.31;;;-2.59;53.30
46111;BME280;31849;55.992;37.252;2022-12-26T13:50:46;100383.81;;;-2.68;53.33
46111;BME280;31849;55.992;37.252;2022-12-26T13:55:58;100379.09;;;-2.75;53.68
46111;BME280;31849;55.992;37.252;2022-12-26T14:01:18;100378.59;;;-2.83;54.08
46111;BME280;31849;55.992;37.252;2022-12-26T14:06:46;100366.63;;;-2.84;53.96
46111;BME280;31849;55.992;37.252;2022-12-26T14:17:30;100363.31;;;-2.83;54.25
46111;BME280;31849;55.992;37.252;2022-12-26T14:22:43;100359.88;;;-2.84;54.07
46111;BME280;31849;55.992;37.252;2022-12-26T14:27:54;100354.28;;;-2.91;54.31
46111;BME280;31849;55.992;37.252;2022-12-26T14:33:15;100342.38;;;-2.92;54.40
46111;BME280;31849;55.992;37.252;2022-12-26T14:38:28;100346.56;;;-2.93;55.06
46111;BME280;31849;55.992;37.252;2022-12-26T14:43:36;100354.59;;;-2.73;54.28
46111;BME280;31849;55.992;37.252;2022-12-26T14:48:54;100345.53;;;-2.70;54.27
46111;BME280;31849;55.992;37.252;2022-12-26T14:59:39;100339.66;;;-2.55;53.98
46111;BME280;31849;55.992;37.252;2022-12-26T15:05:07;100329.47;;;-2.55;54.28
46111;BME280;31849;55.992;37.252;2022-12-26T15:16:11;100331.78;;;-2.32;53.38
46111;BME280;31849;55.992;37.252;2022-12-26T15:21:33;100326.81;;;-2.30;53.70
46111;BME280;31849;55.992;37.252;2022-12-26T15:27:00;100318.66;;;-2.38;53.68
46111;BME280;31849;55.992;37.252;2022-12-26T15:32:17;100314.28;;;-2.54;53.83
46111;BME280;31849;55.992;37.252;2022-12-26T15:37:38;100313.88;;;-2.47;54.25
46111;BME280;31849;55.992;37.252;2022-12-26T15:42:54;100308.50;;;-2.65;53.93
46111;BME280;31849;55.992;37.252;2022-12-26T15:48:06;100296.66;;;-2.64;54.37
46111;BME280;31849;55.992;37.252;2022-12-26T15:53:24;100308.41;;;-2.53;54.10
46111;BME280;31849;55.992;37.252;2022-12-26T15:58:54;100298.22;;;-2.66;54.78
46111;BME280;31849;55.992;37.252;2022-12-26T16:04:16;100293.72;;;-2.43;53.90
46111;BME280;31849;55.992;37.252;2022-12-26T16:09:38;100281.09;;;-2.55;53.80
46111;BME280;31849;55.992;37.252;2022-12-26T16:14:43;100289.31;;;-2.73;54.17
46111;BME280;31849;55.992;37.252;2022-12-26T16:19:49;100304.41;;;-2.62;53.70
46111;BME280;31849;55.992;37.252;2022-12-26T16:24:55;100298.69;;;-2.58;54.20
46111;BME280;31849;55.992;37.252;2022-12-26T16:30:03;100288.13;;;-2.78;54.51
46111;BME280;31849;55.992;37.252;2022-12-26T16:35:18;100290.78;;;-2.76;54.60
46111;BME280;31849;55.992;37.252;2022-12-26T16:40:28;100294.22;;;-2.62;54.50
46111;BME280;31849;55.992;37.252;2022-12-26T16:45:33;100287.63;;;-2.72;54.67
46111;BME280;31849;55.992;37.252;2022-12-26T16:50:44;100292.91;;;-2.96;55.25
46111;BME280;31849;55.992;37.252;2022-12-26T16:55:54;100283.94;;;-2.77;54.86
46111;BME280;31849;55.992;37.252;2022-12-26T17:01:02;100272.75;;;-2.79;54.79
46111;BME280;31849;55.992;37.252;2022-12-26T17:06:10;100270.91;;;-2.95;55.26
46111;BME280;31849;55.992;37.252;2022-12-26T17:11:17;100275.69;;;-2.60;54.73
46111;BME280;31849;55.992;37.252;2022-12-26T17:16:22;100264.53;;;-2.62;54.47
46111;BME280;31849;55.992;37.252;2022-12-26T17:21:28;100254.25;;;-2.63;54.52
46111;BME280;31849;55.992;37.252;2022-12-26T17:26:35;100271.03;;;-2.80;55.07
46111;BME280;31849;55.992;37.252;2022-12-26T17:31:42;100263.97;;;-2.98;55.06
46111;BME280;31849;55.992;37.252;2022-12-26T17:36:46;100253.09;;;-2.82;55.00
46111;BME280;31849;55.992;37.252;2022-12-26T17:42:11;100261.03;;;-2.77;54.94
46111;BME280;31849;55.992;37.252;2022-12-26T17:47:21;100249.56;;;-2.71;54.63
46111;BME280;31849;55.992;37.252;2022-12-26T17:52:27;100250.75;;;-2.79;54.94
46111;BME280;31849;55.992;37.252;2022-12-26T17:57:32;100247.69;;;-2.73;55.21
46111;BME280;31849;55.992;37.252;2022-12-26T18:02:36;100239.56;;;-2.68;55.00
46111;BME280;31849;55.992;37.252;2022-12-26T18:07:40;100238.59;;;-2.70;54.83
46111;BME280;31849;55.992;37.252;2022-12-26T18:12:45;100234.28;;;-2.71;55.04
46111;BME280;31849;55.992;37.252;2022-12-26T18:17:51;100221.56;;;-2.71;54.70
46111;BME280;31849;55.992;37.252;2022-12-26T18:22:55;100218.56;;;-2.37;54.36
46111;BME280;31849;55.992;37.252;2022-12-26T18:28:00;100223.25;;;-2.30;54.48
46111;BME280;31849;55.992;37.252;2022-12-26T18:33:04;100227.13;;;-2.21;54.20
46111;BME280;31849;55.992;37.252;2022-12-26T18:38:09;100208.75;;;-2.31;55.00
46111;BME280;31849;55.992;37.252;2022-12-26T18:43:16;100209.41;;;-2.33;54.36
46111;BME280;31849;55.992;37.252;2022-12-26T18:48:20;100214.34;;;-2.36;54.21
46111;BME280;31849;55.992;37.252;2022-12-26T18:53:24;100208.72;;;-2.72;55.16
46111;BME280;31849;55.992;37.252;2022-12-26T18:58:28;100205.28;;;-2.59;55.06
46111;BME280;31849;55.992;37.252;2022-12-26T19:03:32;100200.94;;;-3.02;54.97
46111;BME280;31849;55.992;37.252;2022-12-26T19:08:36;100200.34;;;-2.98;55.04
46111;BME280;31849;55.992;37.252;2022-12-26T19:13:41;100186.22;;;-2.79;54.35
46111;BME280;31849;55.992;37.252;2022-12-26T19:18:44;100188.88;;;-2.91;54.66
46111;BME280;31849;55.992;37.252;2022-12-26T19:23:48;100191.59;;;-2.88;53.74
46111;BME280;31849;55.992;37.252;2022-12-26T19:28:54;100184.19;;;-2.98;54.13
46111;BME280;31849;55.992;37.252;2022-12-26T19:33:58;100169.31;;;-2.92;54.33
46111;BME280;31849;55.992;37.252;2022-12-26T19:39:02;100167.94;;;-3.14;54.52
46111;BME280;31849;55.992;37.252;2022-12-26T19:44:08;100167.19;;;-3.26;55.07
46111;BME280;31849;55.992;37.252;2022-12-26T19:49:12;100149.56;;;-3.50;54.90
46111;BME280;31849;55.992;37.252;2022-12-26T19:54:16;100149.56;;;-3.50;55.18
46111;BME280;31849;55.992;37.252;2022-12-26T19:59:21;100145.53;;;-3.60;55.62
46111;BME280;31849;55.992;37.252;2022-12-26T20:04:24;100131.66;;;-3.51;54.92
46111;BME280;31849;55.992;37.252;2022-12-26T20:09:28;100139.22;;;-3.40;55.18
46111;BME280;31849;55.992;37.252;2022-12-26T20:14:33;100117.47;;;-3.34;54.98
46111;BME280;31849;55.992;37.252;2022-12-26T20:19:37;100131.09;;;-3.34;55.03
46111;BME280;31849;55.992;37.252;2022-12-26T20:24:40;100133.31;;;-3.25;54.88
46111;BME280;31849;55.992;37.252;2022-12-26T20:29:45;100137.81;;;-3.08;54.38
46111;BME280;31849;55.992;37.252;2022-12-26T20:34:49;100148.09;;;-3.06;54.25
46111;BME280;31849;55.992;37.252;2022-12-26T20:39:52;100130.78;;;-3.39;54.83
46111;BME280;31849;55.992;37.252;2022-12-26T20:44:58;100122.38;;;-3.38;55.50
46111;BME280;31849;55.992;37.252;2022-12-26T20:50:04;100108.88;;;-3.37;54.86
46111;BME280;31849;55.992;37.252;2022-12-26T20:55:08;100111.03;;;-3.29;55.12
46111;BME280;31849;55.992;37.252;2022-12-26T21:00:15;100114.66;;;-3.39;55.79
46111;BME280;31849;55.992;37.252;2022-12-26T21:05:19;100117.47;;;-3.21;55.04
46111;BME280;31849;55.992;37.252;2022-12-26T21:10:22;100123.13;;;-3.12;55.02
46111;BME280;31849;55.992;37.252;2022-12-26T21:15:27;100118.63;;;-2.89;55.08
46111;BME280;31849;55.992;37.252;2022-12-26T21:20:31;100117.25;;;-2.97;54.68
46111;BME280;31849;55.992;37.252;2022-12-26T21:25:35;100109.03;;;-2.93;54.72
46111;BME280;31849;55.992;37.252;2022-12-26T21:30:43;100093.06;;;-2.91;54.58
46111;BME280;31849;55.992;37.252;2022-12-26T21:35:46;100093.84;;;-2.92;54.82
46111;BME280;31849;55.992;37.252;2022-12-26T21:40:54;100085.75;;;-2.99;54.92
46111;BME280;31849;55.992;37.252;2022-12-26T21:46:03;100079.03;;;-2.56;54.20
46111;BME280;31849;55.992;37.252;2022-12-26T21:51:07;100067.13;;;-2.98;54.87
46111;BME280;31849;55.992;37.252;2022-12-26T21:56:12;100064.56;;;-2.85;54.90
46111;BME280;31849;55.992;37.252;2022-12-26T22:01:18;100057.84;;;-2.70;54.28
46111;BME280;31849;55.992;37.252;2022-12-26T22:06:23;100062.63;;;-2.61;54.14
46111;BME280;31849;55.992;37.252;2022-12-26T22:11:26;100068.22;;;-2.67;54.60
46111;BME280;31849;55.992;37.252;2022-12-26T22:16:51;100056.81;;;-2.58;54.15
46111;BME280;31849;55.992;37.252;2022-12-26T22:21:55;100039.72;;;-2.89;54.53
46111;BME280;31849;55.992;37.252;2022-12-26T22:26:59;100032.47;;;-2.83;54.46
46111;BME280;31849;55.992;37.252;2022-12-26T22:32:04;100031.28;;;-2.88;54.59
46111;BME280;31849;55.992;37.252;2022-12-26T22:37:08;100020.56;;;-2.97;55.04
46111;BME280;31849;55.992;37.252;2022-12-26T22:42:12;100016.47;;;-3.09;55.02
46111;BME280;31849;55.992;37.252;2022-12-26T22:47:17;100020.53;;;-3.26;55.65
46111;BME280;31849;55.992;37.252;2022-12-26T22:52:20;100000.63;;;-3.05;55.05
46111;BME280;31849;55.992;37.252;2022-12-26T22:57:24;100009.00;;;-3.21;55.04
46111;BME280;31849;55.992;37.252;2022-12-26T23:02:29;100009.59;;;-2.96;54.94
46111;BME280;31849;55.992;37.252;2022-12-26T23:07:33;99993.69;;;-3.07;54.99
46111;BME280;31849;55.992;37.252;2022-12-26T23:12:37;99998.78;;;-3.07;54.91
46111;BME280;31849;55.992;37.252;2022-12-26T23:17:51;99983.22;;;-3.12;54.90
46111;BME280;31849;55.992;37.252;2022-12-26T23:23:15;99991.84;;;-3.51;55.68
46111;BME280;31849;55.992;37.252;2022-12-26T23:28:18;99988.53;;;-3.64;55.59
46111;BME280;31849;55.992;37.252;2022-12-26T23:33:40;99968.31;;;-3.76;55.95
46111;BME280;31849;55.992;37.252;2022-12-26T23:38:44;99967.72;;;-3.85;56.19
46111;BME280;31849;55.992;37.252;2022-12-26T23:43:48;99948.19;;;-3.73;55.54
46111;BME280;31849;55.992;37.252;2022-12-26T23:48:53;99932.28;;;-3.97;55.72
46111;BME280;31849;55.992;37.252;2022-12-26T23:53:57;99910.16;;;-3.71;55.35
46111;BME280;31849;55.992;37.252;2022-12-26T23:59:00;99927.03;;;-3.58;55.11
